Terminal Aerodrome Forecast
Issued by NWS

Home | Current Version | Previous Version | Graphics & Text | Print | Product List | Glossary On
Versions: 1 2 3 4 5 6 7 8 9 10 11 12 13 14 15
675
FTUS43 KTOP 031126
TAFFOE
TAF
KFOE 031126Z 0312/0412 32018G31KT P6SM BKN021
     FM031900 32016KT P6SM SCT030
     FM040000 31007KT P6SM SKC=

USA.gov is the U.S. government's official web portal to all federal, state and local government web resources and services.